Time;durP1;ratioP1;P1;durP2;ratioP2;P2;SDS_P1;SDS_P2;PMS_P1;PMS_P2;Temp;Humidity;BMP_temperature;BMP_pressure;BME280_temperature;BME280_humidity;BME280_pressure;Samples;Min_cycle;Max_cycle;Signal;HPM_P1;HPM_P2
2022/09/24 04:57:29;;;;;;;4.70;4.10;;;;;;;7.80;100.00;101549.09;5109949;27;20387;-75
2022/09/24 04:59:56;;;;;;;4.90;4.40;;;;;;;7.77;100.00;101547.53;5112602;28;20043;-74
2022/09/24 05:02:22;;;;;;;4.47;4.07;;;;;;;7.86;100.00;101555.72;5113088;28;20118;-75
2022/09/24 05:04:48;;;;;;;5.23;4.10;;;;;;;7.86;100.00;101550.41;5110114;28;20046;-75
2022/09/24 05:07:13;;;;;;;6.23;4.63;;;;;;;7.90;100.00;101563.28;5110037;28;20036;-74
2022/09/24 05:09:39;;;;;;;5.73;4.37;;;;;;;7.91;100.00;101554.38;5109962;28;20032;-74
2022/09/24 05:12:05;;;;;;;4.20;3.80;;;;;;;7.87;100.00;101546.78;5109961;28;20040;-73
2022/09/24 05:14:30;;;;;;;7.07;3.83;;;;;;;7.93;100.00;101547.13;5110338;28;20032;-74
2022/09/24 05:16:56;;;;;;;6.47;5.10;;;;;;;7.98;100.00;101560.00;5109896;28;20044;-74
2022/09/24 05:19:22;;;;;;;6.70;3.83;;;;;;;7.96;100.00;101546.03;5108137;28;20161;-75
2022/09/24 05:21:47;;;;;;;9.10;5.17;;;;;;;8.00;100.00;101550.09;5109686;28;20036;-74
2022/09/24 05:24:13;;;;;;;4.27;3.53;;;;;;;8.05;100.00;101545.25;5109589;28;20035;-75
2022/09/24 05:29:22;;;;;;;4.53;4.13;;;;;;;8.18;100.00;101547.75;5109594;28;20044;-73
2022/09/24 05:31:48;;;;;;;5.73;3.97;;;;;;;8.19;100.00;101547.63;5109145;28;20418;-73
2022/09/24 05:34:14;;;;;;;3.90;3.50;;;;;;;8.20;100.00;101551.13;5109375;28;20032;-73
2022/09/24 05:36:42;;;;;;;5.93;4.73;;;;;;;8.22;100.00;101552.66;5109410;28;20031;-75
2022/09/24 05:39:11;;;;;;;4.37;3.37;;;;;;;8.26;100.00;101546.13;5109656;28;20036;-75
2022/09/24 05:41:38;;;;;;;5.50;3.63;;;;;;;8.31;100.00;101551.88;5108227;28;20157;-72
2022/09/24 05:44:04;;;;;;;4.63;3.80;;;;;;;8.28;100.00;101536.22;5110305;28;20031;-79
2022/09/24 05:46:30;;;;;;;4.47;4.07;;;;;;;8.35;100.00;101544.53;5109744;28;20031;-73
2022/09/24 05:48:55;;;;;;;3.70;3.40;;;;;;;8.38;100.00;101547.81;5110074;28;20050;-73
2022/09/24 05:51:21;;;;;;;3.70;3.20;;;;;;;8.38;100.00;101531.88;5108455;28;20063;-73
2022/09/24 05:53:47;;;;;;;3.87;3.57;;;;;;;8.53;100.00;101550.13;5107877;28;20024;-75
2022/09/24 05:56:14;;;;;;;6.47;3.57;;;;;;;8.59;100.00;101533.66;5108831;28;20521;-74
2022/09/24 05:58:39;;;;;;;5.97;3.27;;;;;;;8.66;100.00;101534.81;5108687;28;20402;-73
2022/09/24 06:01:06;;;;;;;3.40;3.10;;;;;;;8.68;100.00;101532.91;5107549;28;20040;-76
2022/09/24 06:03:32;;;;;;;3.07;2.83;;;;;;;8.77;100.00;101537.41;5108917;28;20028;-74
2022/09/24 06:06:03;;;;;;;2.77;2.57;;;;;;;8.76;100.00;101532.22;5108646;28;20039;-73
2022/09/24 06:08:30;;;;;;;3.10;2.53;;;;;;;8.70;100.00;101530.94;5096693;28;20040;-72
2022/09/24 06:11:01;;;;;;;3.50;3.20;;;;;;;8.65;100.00;101518.03;5094079;28;20418;-73
2022/09/24 06:13:27;;;;;;;3.33;3.07;;;;;;;8.76;100.00;101534.88;5095070;28;20036;-72
2022/09/24 06:16:09;;;;;;;4.87;3.10;;;;;;;8.80;100.00;101533.66;5094876;28;20449;-75
2022/09/24 06:18:41;;;;;;;3.50;3.20;;;;;;;8.78;100.00;101530.28;5094914;28;20039;-72
2022/09/24 06:21:09;;;;;;;3.40;3.10;;;;;;;8.82;100.00;101537.84;5094756;28;20036;-73
2022/09/24 06:23:36;;;;;;;4.47;2.58;;;;;;;8.82;100.00;101521.91;5093590;28;20081;-73
2022/09/24 06:26:02;;;;;;;2.93;2.53;;;;;;;8.87;100.00;101522.34;5094488;28;20032;-72
2022/09/24 06:28:28;;;;;;;3.33;2.90;;;;;;;8.95;100.00;101524.34;5094538;28;20040;-76
2022/09/24 06:30:54;;;;;;;3.77;2.43;;;;;;;9.02;100.00;101525.50;5093254;28;20036;-72
2022/09/24 06:33:20;;;;;;;4.10;2.37;;;;;;;9.15;100.00;101520.78;5094916;28;20489;-74
2022/09/24 06:35:46;;;;;;;3.03;2.77;;;;;;;9.25;100.00;101520.81;5094492;28;20036;-72
2022/09/24 06:38:14;;;;;;;2.70;2.50;;;;;;;9.36;100.00;101515.41;5094483;28;20036;-73
2022/09/24 06:40:41;;;;;;;2.53;2.10;;;;;;;9.54;100.00;101520.88;5093049;28;20046;-73
2022/09/24 06:43:08;;;;;;;3.77;2.60;;;;;;;9.62;100.00;101519.22;5094461;28;20105;-74
2022/09/24 06:45:34;;;;;;;2.33;2.17;;;;;;;9.72;99.64;101513.06;5094421;28;20076;-74
2022/09/24 06:48:01;;;;;;;2.13;1.90;;;;;;;9.81;99.80;101514.88;5094486;28;20067;-77
2022/09/24 06:50:29;;;;;;;2.70;2.30;;;;;;;9.87;98.96;101511.69;5094569;28;20073;-78
2022/09/24 06:52:55;;;;;;;2.35;2.15;;;;;;;9.98;98.13;101511.53;5094543;28;20035;-76
2022/09/24 06:55:23;;;;;;;3.37;2.33;;;;;;;10.03;97.88;101509.28;5094012;28;20051;-74
2022/09/24 06:58:04;;;;;;;2.27;1.90;;;;;;;10.18;95.66;101510.56;5086935;28;20048;-78
2022/09/24 07:00:30;;;;;;;5.83;2.20;;;;;;;10.20;94.84;101503.31;5093897;28;20078;-74
2022/09/24 07:02:56;;;;;;;3.73;1.90;;;;;;;10.26;93.96;101512.53;5092955;28;20045;-76
2022/09/24 07:05:22;;;;;;;3.10;2.20;;;;;;;10.37;93.37;101504.38;5092790;28;20042;-74
2022/09/24 07:07:47;;;;;;;1.97;1.67;;;;;;;10.50;92.07;101504.09;5093071;28;20036;-76
2022/09/24 07:10:13;;;;;;;1.90;1.50;;;;;;;10.49;89.18;101503.25;5093297;28;20143;-76
2022/09/24 07:12:40;;;;;;;7.47;2.73;;;;;;;10.29;88.62;101512.25;5093110;28;20113;-74
2022/09/24 07:15:07;;;;;;;1.97;1.47;;;;;;;10.26;87.85;101501.88;5092990;28;20036;-76
2022/09/24 07:17:32;;;;;;;3.97;1.67;;;;;;;10.23;87.86;101492.38;5094253;28;20038;-76
2022/09/24 07:19:59;;;;;;;2.83;1.60;;;;;;;10.29;88.17;101490.13;5091610;28;20032;-78
2022/09/24 07:22:25;;;;;;;4.67;1.77;;;;;;;10.32;88.37;101495.16;5075339;28;20421;-77
2022/09/24 07:24:51;;;;;;;2.67;2.23;;;;;;;10.40;86.84;101487.28;5094077;28;20036;-74
2022/09/24 07:27:16;;;;;;;1.83;1.50;;;;;;;10.35;83.41;101497.53;5091673;28;20039;-75
2022/09/24 07:29:42;;;;;;;2.90;1.57;;;;;;;10.31;84.90;101493.47;5093199;28;20039;-75
2022/09/24 07:32:07;;;;;;;1.90;1.80;;;;;;;10.20;83.57;101495.31;5093238;28;20032;-77
2022/09/24 07:34:42;;;;;;;1.70;1.60;;;;;;;10.13;82.59;101480.88;5092511;28;20178;-78
2022/09/24 07:37:08;;;;;;;2.13;1.80;;;;;;;10.17;82.53;101492.06;5089791;28;20079;-78
2022/09/24 07:39:37;;;;;;;2.20;1.83;;;;;;;10.20;82.93;101489.13;5091617;28;20108;-76
2022/09/24 07:42:07;;;;;;;2.33;2.07;;;;;;;10.13;82.90;101466.72;5073673;28;20483;-77
2022/09/24 07:48:14;;;;;;;3.20;3.00;;;;;;;10.30;81.24;101470.50;5091113;28;20153;-76
2022/09/24 07:50:50;;;;;;;2.20;1.70;;;;;;;10.38;80.80;101459.94;5091526;28;20024;-75
2022/09/24 07:53:30;;;;;;;2.20;2.10;;;;;;;10.42;80.14;101458.72;5087183;28;20048;-75
2022/09/24 07:56:03;;;;;;;2.00;1.80;;;;;;;10.72;79.43;101487.75;5092346;28;20059;-75
2022/09/24 07:58:28;;;;;;;1.90;1.70;;;;;;;10.76;79.47;101478.50;5092072;28;20122;-75
2022/09/24 08:00:57;;;;;;;2.07;1.87;;;;;;;10.73;78.22;101484.13;5091880;28;20499;-74
2022/09/24 08:03:56;;;;;;;3.20;2.10;;;;;;;10.70;77.69;101472.91;5090749;28;20067;-75
2022/09/24 08:06:22;;;;;;;2.13;1.77;;;;;;;10.68;73.22;101489.00;5091458;28;20039;-74
2022/09/24 08:08:52;;;;;;;4.80;1.83;;;;;;;10.61;73.76;101474.59;5091357;28;20096;-75
2022/09/24 08:11:18;;;;;;;2.40;1.63;;;;;;;10.68;75.06;101477.53;5092276;28;20047;-74
2022/09/24 08:13:44;;;;;;;1.90;1.80;;;;;;;10.70;74.37;101467.59;5093333;28;20036;-76
2022/09/24 08:16:24;;;;;;;2.23;2.03;;;;;;;10.78;74.05;101475.69;5093096;28;20131;-75
2022/09/24 08:18:50;;;;;;;2.57;2.33;;;;;;;10.78;74.04;101465.88;5092226;28;20555;-76
2022/09/24 08:21:16;;;;;;;2.10;1.60;;;;;;;10.74;73.07;101459.16;5091789;28;20127;-76
2022/09/24 08:23:42;;;;;;;2.30;2.10;;;;;;;10.67;70.54;101452.72;5092259;28;20115;-74
2022/09/24 08:26:09;;;;;;;2.73;1.93;;;;;;;10.57;72.07;101457.25;5091561;28;20032;-77
2022/09/24 08:28:35;;;;;;;2.23;1.63;;;;;;;10.55;71.75;101445.91;5091366;28;20040;-82
2022/09/24 08:39:52;;;;;;;3.13;2.23;;;;;;;10.62;69.70;101438.16;5650180;22;20054;-83
2022/09/24 08:42:44;;;;;;;1.97;1.83;;;;;;;10.82;68.92;101453.06;5056081;28;20072;-83
2022/09/24 09:01:47;;;;;;;1.47;1.37;;;;;;;10.96;67.80;101403.75;5053182;28;20044;-79
2022/09/24 09:08:39;;;;;;;3.87;1.93;;;;;;;11.09;67.96;101441.59;5063949;28;20596;-73
2022/09/24 09:22:32;;;;;;;1.73;1.63;;;;;;;11.04;65.01;101427.88;5028456;28;20548;-77
2022/09/24 09:25:22;;;;;;;1.97;1.87;;;;;;;10.93;65.37;101398.72;5013616;28;20037;-78
2022/09/24 09:28:31;;;;;;;4.33;2.00;;;;;;;11.12;66.92;101414.63;5025510;28;20033;-84
2022/09/24 09:35:01;;;;;;;1.90;1.70;;;;;;;11.22;67.98;101402.06;4988466;28;20053;-76
2022/09/24 09:37:36;;;;;;;3.03;2.30;;;;;;;11.27;67.81;101399.75;4990079;28;20407;-76
2022/09/24 09:40:22;;;;;;;1.60;1.50;;;;;;;11.27;66.90;101399.75;5005795;28;20038;-75
2022/09/24 09:42:47;;;;;;;1.43;1.30;;;;;;;11.15;65.18;101396.50;5010727;28;20056;-74
2022/09/24 09:45:26;;;;;;;4.43;1.50;;;;;;;11.10;64.55;101406.78;5013329;28;20495;-74
2022/09/24 09:47:58;;;;;;;2.75;1.40;;;;;;;11.10;65.04;101389.94;5013224;28;20489;-74
2022/09/24 09:50:35;;;;;;;1.67;1.57;;;;;;;11.14;63.61;101407.31;5013317;28;20045;-75
2022/09/24 09:53:03;;;;;;;1.77;1.67;;;;;;;11.11;65.27;101383.63;5034107;28;20131;-78
2022/09/24 09:55:34;;;;;;;1.67;1.58;;;;;;;11.19;64.16;101394.34;5055625;28;20067;-74
2022/09/24 09:58:29;;;;;;;2.10;1.80;;;;;;;11.18;64.75;101376.69;5050983;28;20083;-76
2022/09/24 10:01:30;;;;;;;2.13;1.93;;;;;;;11.36;63.47;101390.88;5049826;28;20044;-74
2022/09/24 10:04:02;;;;;;;2.00;1.60;;;;;;;11.36;63.25;101374.88;5044189;28;20052;-73
2022/09/24 10:06:31;;;;;;;2.23;2.03;;;;;;;11.44;63.70;101371.44;5041172;28;20519;-75
2022/09/24 10:09:25;;;;;;;3.15;1.83;;;;;;;11.46;63.23;101372.97;5050781;28;20037;-74
2022/09/24 10:11:51;;;;;;;1.80;1.70;;;;;;;11.43;63.07;101359.09;5029298;28;20243;-75
2022/09/24 10:14:20;;;;;;;3.27;1.83;;;;;;;11.49;63.92;101361.97;5017063;28;20524;-75
2022/09/24 10:16:54;;;;;;;1.63;1.53;;;;;;;11.24;63.97;101332.56;5034758;28;20136;-73
2022/09/24 10:19:20;;;;;;;1.93;1.80;;;;;;;11.53;63.05;101365.16;5037943;28;20048;-72
2022/09/24 10:21:46;;;;;;;2.57;1.70;;;;;;;11.24;63.81;101322.75;5067519;28;20105;-74
2022/09/24 10:24:17;;;;;;;2.90;2.10;;;;;;;11.56;62.57;101366.69;5074906;28;20432;-73
2022/09/24 10:26:44;;;;;;;1.80;1.70;;;;;;;11.59;62.51;101345.06;5075152;28;20036;-73
2022/09/24 10:31:59;;;;;;;3.10;2.47;;;;;;;11.52;61.44;101335.97;5046569;28;20039;-73
2022/09/24 10:34:27;;;;;;;2.43;1.47;;;;;;;11.54;61.47;101361.50;5054696;28;20120;-77
2022/09/24 10:37:11;;;;;;;2.00;1.90;;;;;;;11.52;61.44;101346.66;5048442;28;20079;-77
2022/09/24 10:39:37;;;;;;;2.50;1.90;;;;;;;11.53;61.70;101337.66;5051246;28;20045;-79
2022/09/24 10:42:04;;;;;;;3.80;1.80;;;;;;;11.65;62.30;101345.28;5043117;28;20045;-78
2022/09/24 10:44:35;;;;;;;2.23;1.97;;;;;;;11.72;62.79;101337.47;5042214;28;20037;-76
2022/09/24 10:47:22;;;;;;;2.37;2.10;;;;;;;11.73;61.72;101345.31;5042060;28;20072;-77
2022/09/24 10:50:21;;;;;;;2.53;1.93;;;;;;;11.66;61.21;101332.78;5048321;28;20037;-76
2022/09/24 10:52:53;;;;;;;2.03;1.40;;;;;;;11.56;60.22;101335.50;5054739;28;20043;-75
2022/09/24 10:55:32;;;;;;;2.27;1.97;;;;;;;11.53;60.88;101327.00;5043776;28;20511;-76
2022/09/24 10:58:19;;;;;;;1.50;1.40;;;;;;;11.57;60.73;101328.38;5043738;28;20403;-76
2022/09/24 11:00:53;;;;;;;3.17;1.53;;;;;;;11.63;61.34;101327.75;5047711;28;20064;-78
2022/09/24 11:03:28;;;;;;;2.93;1.90;;;;;;;11.65;60.93;101323.94;5045525;28;20029;-74
2022/09/24 11:06:07;;;;;;;3.80;1.97;;;;;;;11.63;62.06;101317.09;5046959;28;20065;-76
2022/09/24 11:08:52;;;;;;;1.63;1.53;;;;;;;11.76;61.19;101328.16;5038978;28;20041;-76
2022/09/24 11:11:54;;;;;;;39.50;3.30;;;;;;;11.73;60.20;101323.16;5039954;28;20052;-76
2022/09/24 11:14:26;;;;;;;2.20;2.00;;;;;;;11.71;59.18;101323.31;5050232;28;20127;-80
2022/09/24 11:17:02;;;;;;;1.60;1.50;;;;;;;11.64;60.10;101316.09;5071954;28;20036;-81
2022/09/24 11:20:05;;;;;;;1.90;1.80;;;;;;;11.64;60.68;101313.41;5073483;28;20040;-78
2022/09/24 11:22:55;;;;;;;1.93;1.73;;;;;;;11.73;60.84;101305.31;5060816;28;20389;-77
2022/09/24 11:25:37;;;;;;;1.97;1.77;;;;;;;11.77;59.65;101303.16;5072846;28;20036;-77
2022/09/24 11:28:39;;;;;;;4.10;1.43;;;;;;;11.83;59.27;101307.88;5043395;28;20036;-77
2022/09/24 11:31:29;;;;;;;2.93;1.90;;;;;;;11.79;59.15;101301.19;5070671;28;20385;-77
2022/09/24 11:34:21;;;;;;;2.63;1.50;;;;;;;11.63;59.86;101295.75;5073755;28;20032;-76
2022/09/24 11:36:50;;;;;;;2.53;1.70;;;;;;;11.66;60.15;101303.44;5036370;28;20033;-82
2022/09/24 11:39:27;;;;;;;5.32;1.80;;;;;;;11.73;60.33;101296.47;5064402;28;20135;-80
2022/09/24 11:42:18;;;;;;;2.13;1.90;;;;;;;11.74;59.99;101292.81;5068372;28;20055;-79
2022/09/24 11:45:18;;;;;;;1.50;1.40;;;;;;;11.78;59.93;101300.34;5066430;28;20021;-78
2022/09/24 11:48:22;;;;;;;2.07;1.70;;;;;;;11.79;60.10;101287.84;5072202;28;20041;-79
2022/09/24 11:50:50;;;;;;;3.27;1.90;;;;;;;11.83;60.19;101288.38;5070920;28;20045;-79
2022/09/24 11:53:36;;;;;;;1.98;1.63;;;;;;;11.82;59.75;101295.53;5071880;28;20427;-78
2022/09/24 11:56:43;;;;;;;1.40;1.30;;;;;;;11.81;59.60;101279.69;5068106;28;20060;-81
2022/09/24 11:59:19;;;;;;;1.50;1.40;;;;;;;11.83;58.83;101291.88;5018065;28;20456;-78
2022/09/24 12:01:53;;;;;;;1.80;1.70;;;;;;;11.73;59.47;101273.28;5032027;28;20045;-79
2022/09/24 12:04:58;;;;;;;1.97;1.87;;;;;;;11.83;59.70;101275.88;5033179;28;20038;-79
2022/09/24 12:07:39;;;;;;;3.03;1.60;;;;;;;11.93;60.03;101287.28;5063411;28;20052;-81
2022/09/24 12:10:31;;;;;;;1.93;1.57;;;;;;;11.99;59.78;101294.66;5069928;28;20055;-77
2022/09/24 12:13:11;;;;;;;5.73;2.10;;;;;;;11.91;58.93;101277.75;5062988;28;20044;-75
2022/09/24 12:15:46;;;;;;;3.37;1.57;;;;;;;11.82;59.49;101271.53;5071546;28;20040;-75
2022/09/24 12:18:26;;;;;;;1.87;1.73;;;;;;;11.81;59.36;101267.19;5071768;28;20036;-75
2022/09/24 12:20:56;;;;;;;2.80;2.50;;;;;;;11.81;58.81;101280.53;5071845;28;20036;-76
2022/09/24 12:23:28;;;;;;;1.20;1.10;;;;;;;11.75;58.17;101275.78;5049088;28;20047;-76
2022/09/24 12:25:55;;;;;;;3.90;1.77;;;;;;;11.74;59.84;101261.63;5071061;28;20385;-76
2022/09/24 12:34:39;;;;;;;2.33;1.60;;;;;;;11.78;57.97;101264.84;5073564;28;20062;-72
2022/09/24 12:37:11;;;;;;;2.80;1.83;;;;;;;11.79;58.36;101258.50;5080767;28;20059;-82
2022/09/24 12:39:45;;;;;;;3.60;1.37;;;;;;;11.68;58.76;101256.06;5084474;28;20035;-77
2022/09/24 12:42:12;;;;;;;2.03;1.33;;;;;;;11.69;59.31;101263.09;5059219;28;20467;-80
2022/09/24 12:44:55;;;;;;;1.97;1.70;;;;;;;11.68;58.87;101256.91;5040946;28;20037;-79
2022/09/24 12:47:23;;;;;;;3.07;1.50;;;;;;;11.63;59.45;101248.56;5050957;28;20515;-77
2022/09/24 12:50:01;;;;;;;1.63;1.50;;;;;;;11.65;59.64;101251.06;5060467;28;20033;-78
2022/09/24 12:52:33;;;;;;;1.87;1.60;;;;;;;11.68;59.68;101261.41;5053239;28;20097;-78
2022/09/24 12:55:01;;;;;;;2.60;1.80;;;;;;;11.69;60.74;101247.91;5039760;28;20112;-76
2022/09/24 12:57:40;;;;;;;2.23;1.40;;;;;;;11.77;60.89;101252.47;5042687;28;20037;-77
2022/09/24 13:00:32;;;;;;;3.97;2.83;;;;;;;11.83;61.02;101254.50;5038294;28;20095;-79
2022/09/24 13:02:59;;;;;;;1.90;1.70;;;;;;;11.74;61.14;101239.44;5041243;28;20478;-77
2022/09/24 13:05:44;;;;;;;3.00;1.80;;;;;;;11.67;61.15;101244.56;5023122;28;20098;-79
2022/09/24 13:08:13;;;;;;;1.90;1.70;;;;;;;11.60;61.03;101235.53;5027056;28;20037;-79
2022/09/24 13:10:38;;;;;;;2.67;1.88;;;;;;;11.56;62.29;101227.97;5038954;28;20038;-77
2022/09/24 13:13:43;;;;;;;2.43;1.90;;;;;;;11.63;62.35;101229.03;5043315;28;20463;-79
2022/09/24 13:16:19;;;;;;;2.37;2.07;;;;;;;11.62;62.52;101230.03;4959719;28;20047;-80
2022/09/24 13:18:58;;;;;;;2.47;1.60;;;;;;;11.56;62.63;101227.97;4964669;28;20057;-79
2022/09/24 13:21:28;;;;;;;2.10;1.80;;;;;;;11.44;61.89;101195.41;5012557;28;20057;-76
2022/09/24 13:23:54;;;;;;;2.73;1.63;;;;;;;11.42;61.62;101222.25;5025725;28;20044;-80
2022/09/24 13:26:27;;;;;;;2.07;1.87;;;;;;;11.42;62.77;101224.91;5043445;28;20095;-77
2022/09/24 13:29:05;;;;;;;2.30;1.90;;;;;;;11.44;62.54;101217.59;5053200;28;20051;-77
2022/09/24 13:31:38;;;;;;;5.13;2.40;;;;;;;11.46;62.81;101220.94;5038148;28;20029;-77
2022/09/24 13:34:16;;;;;;;2.80;2.10;;;;;;;11.44;63.22;101222.91;5064207;28;20128;-79
2022/09/24 13:37:32;;;;;;;;;;;;;;;;;;;;;
2022/09/24 13:40:21;;;;;;;2.67;1.70;;;;;;;11.37;62.86;101199.72;5068116;28;20055;-78
2022/09/24 13:42:59;;;;;;;3.80;2.20;;;;;;;11.43;63.13;101202.56;5069784;28;20036;-74
2022/09/24 13:45:25;;;;;;;3.40;2.23;;;;;;;11.40;62.69;101205.56;5044213;28;20484;-74
2022/09/24 13:47:56;;;;;;;10.10;2.30;;;;;;;11.38;62.97;101215.56;5059577;28;20036;-74
2022/09/24 13:50:24;;;;;;;4.07;2.37;;;;;;;11.38;62.79;101207.53;5075252;28;20079;-76
2022/09/24 13:53:25;;;;;;;3.90;2.28;;;;;;;11.40;63.67;101202.06;5075121;28;20028;-78
2022/09/24 13:55:59;;;;;;;4.13;1.83;;;;;;;11.36;63.04;101195.38;5047059;28;20045;-75
2022/09/24 13:58:33;;;;;;;2.10;2.00;;;;;;;11.35;62.99;101196.38;5028773;28;20053;-77
2022/09/24 14:01:09;;;;;;;2.13;1.93;;;;;;;11.32;63.19;101191.34;5042317;28;20041;-75
2022/09/24 14:03:36;;;;;;;5.43;1.80;;;;;;;11.32;62.79;101197.50;5043057;28;20035;-76
2022/09/24 14:06:11;;;;;;;3.40;2.10;;;;;;;11.30;63.03;101199.50;5044174;28;20075;-77
2022/09/24 14:08:41;;;;;;;3.33;1.80;;;;;;;11.26;63.33;101187.44;5042610;28;20032;-76
2022/09/24 14:11:25;;;;;;;5.97;1.70;;;;;;;11.10;63.43;101168.69;5044750;28;20041;-77
2022/09/24 14:13:51;;;;;;;2.47;1.63;;;;;;;11.19;63.33;101199.75;5045227;28;20029;-78
2022/09/24 14:16:22;;;;;;;1.80;1.70;;;;;;;11.15;63.67;101183.22;5043202;28;20099;-75
2022/09/24 14:18:48;;;;;;;3.00;1.63;;;;;;;11.15;64.10;101185.06;5045476;28;20507;-74
2022/09/24 14:21:19;;;;;;;2.63;2.10;;;;;;;11.12;64.79;101180.03;5027390;28;20025;-74
2022/09/24 14:23:50;;;;;;;2.03;1.80;;;;;;;11.11;64.97;101167.72;5042916;28;20106;-78
2022/09/24 14:26:30;;;;;;;4.53;2.00;;;;;;;11.12;65.24;101172.03;5028249;28;20068;-75
2022/09/24 14:28:58;;;;;;;2.63;2.20;;;;;;;11.05;63.73;101168.34;5044050;28;20565;-79
2022/09/24 14:31:24;;;;;;;2.13;1.92;;;;;;;11.01;64.23;101157.16;5045325;28;20037;-74
2022/09/24 14:33:49;;;;;;;2.23;1.93;;;;;;;11.02;64.85;101174.81;5047147;28;20041;-77
2022/09/24 14:36:15;;;;;;;3.63;1.73;;;;;;;10.96;65.21;101171.91;5021914;28;20041;-77
2022/09/24 14:38:56;;;;;;;5.93;1.57;;;;;;;10.90;64.79;101175.19;5046494;28;20072;-75
2022/09/24 14:41:27;;;;;;;2.10;1.90;;;;;;;10.82;65.14;101171.50;5040407;28;20029;-76
2022/09/24 14:44:08;;;;;;;2.03;1.83;;;;;;;10.78;64.64;101178.13;5039872;28;20037;-76
2022/09/24 14:46:57;;;;;;;2.43;2.00;;;;;;;10.75;65.47;101178.44;5045326;28;20049;-78
2022/09/24 14:49:51;;;;;;;2.73;2.07;;;;;;;10.71;65.34;101171.75;5041220;28;20033;-77
2022/09/24 14:52:54;;;;;;;2.40;2.20;;;;;;;10.74;65.90;101182.09;5050063;28;20049;-77
2022/09/24 14:55:21;;;;;;;2.10;1.97;;;;;;;10.70;66.56;101172.72;5051576;28;20582;-76
2022/09/24 14:57:49;;;;;;;2.23;1.90;;;;;;;10.62;65.54;101164.63;5040220;28;20032;-77
2022/09/24 15:00:29;;;;;;;2.53;2.33;;;;;;;10.61;64.37;101168.28;5001845;28;20046;-74
2022/09/24 15:02:56;;;;;;;3.07;2.23;;;;;;;10.57;65.26;101169.59;5008007;28;20121;-76
2022/09/24 15:05:25;;;;;;;2.93;2.47;;;;;;;10.43;65.02;101146.19;5005204;28;20415;-76
2022/09/24 15:07:51;;;;;;;4.13;1.85;;;;;;;10.51;65.37;101170.22;5002362;28;20028;-77
2022/09/24 15:10:20;;;;;;;1.70;1.60;;;;;;;10.36;65.56;101153.06;5008658;28;20038;-76
2022/09/24 15:12:48;;;;;;;1.70;1.60;;;;;;;10.33;66.26;101166.69;5008440;28;20034;-78
2022/09/24 15:15:15;;;;;;;1.87;1.70;;;;;;;10.35;66.34;101180.69;5002775;28;20034;-75
2022/09/24 15:17:42;;;;;;;1.60;1.40;;;;;;;10.28;66.65;101180.47;5002860;28;20121;-75
2022/09/24 15:20:10;;;;;;;2.00;1.77;;;;;;;10.24;66.47;101179.09;5006402;28;20021;-77
2022/09/24 15:22:35;;;;;;;2.17;1.98;;;;;;;10.24;66.90;101179.94;5004136;28;20041;-78
2022/09/24 15:25:01;;;;;;;2.13;1.50;;;;;;;10.17;67.59;101173.50;5001909;28;20038;-74
2022/09/24 15:27:38;;;;;;;3.00;1.73;;;;;;;10.15;67.98;101183.47;5007355;28;20149;-76
2022/09/24 15:30:06;;;;;;;3.07;1.57;;;;;;;10.07;68.29;101172.72;5008828;28;20037;-72
2022/09/24 15:32:36;;;;;;;2.97;1.60;;;;;;;10.00;68.39;101166.31;5005716;28;20034;-77
2022/09/24 15:35:07;;;;;;;3.13;2.63;;;;;;;9.97;69.13;101171.09;5010685;28;20045;-76
2022/09/24 15:37:33;;;;;;;2.20;2.00;;;;;;;9.89;69.52;101174.50;5003580;28;20465;-75
2022/09/24 15:40:06;;;;;;;2.67;1.97;;;;;;;9.88;69.87;101172.84;5012478;28;20125;-75
2022/09/24 15:42:31;;;;;;;2.50;1.70;;;;;;;9.81;70.00;101169.91;5001662;28;20056;-76
2022/09/24 15:44:57;;;;;;;3.07;2.07;;;;;;;9.82;70.46;101165.41;5005272;28;20553;-75
2022/09/24 15:47:22;;;;;;;4.30;1.90;;;;;;;9.60;70.99;101140.91;5006394;28;20040;-77
2022/09/24 15:49:49;;;;;;;2.80;2.10;;;;;;;9.70;71.10;101163.94;5009705;28;20083;-77
2022/09/24 15:52:23;;;;;;;2.20;2.00;;;;;;;9.65;71.55;101158.25;5012179;28;20071;-76
2022/09/24 15:54:57;;;;;;;2.77;2.37;;;;;;;9.63;71.63;101169.88;5023564;28;20120;-76
2022/09/24 15:57:24;;;;;;;2.90;2.63;;;;;;;9.57;71.94;101167.78;5012645;28;20477;-76
2022/09/24 15:59:52;;;;;;;2.43;2.20;;;;;;;9.49;72.41;101159.69;5050832;28;20056;-77
2022/09/24 16:02:25;;;;;;;5.13;2.27;;;;;;;9.50;72.28;101169.34;5056911;28;20549;-77
2022/09/24 16:04:51;;;;;;;2.60;2.20;;;;;;;9.48;72.16;101171.31;5039418;28;20048;-78
2022/09/24 16:07:17;;;;;;;3.77;3.03;;;;;;;9.43;72.56;101154.13;5025396;28;20033;-76
2022/09/24 16:09:43;;;;;;;2.47;2.10;;;;;;;9.44;72.69;101161.94;5043736;28;20031;-77
2022/09/24 16:12:14;;;;;;;3.30;2.33;;;;;;;9.39;72.87;101160.72;5055841;28;20036;-76
2022/09/24 16:14:41;;;;;;;4.67;2.33;;;;;;;9.37;73.67;101158.22;5045673;28;20135;-78
2022/09/24 16:17:07;;;;;;;4.23;2.80;;;;;;;9.34;73.62;101155.84;5041857;28;20128;-77
2022/09/24 16:19:32;;;;;;;5.57;3.17;;;;;;;9.32;73.22;101158.66;5032750;28;20180;-75
2022/09/24 16:21:58;;;;;;;3.37;2.90;;;;;;;9.31;73.58;101148.16;5031656;28;20036;-77
2022/09/24 16:24:24;;;;;;;6.57;3.47;;;;;;;9.29;73.97;101153.63;5042039;28;20037;-75
2022/09/24 16:26:50;;;;;;;4.90;3.70;;;;;;;9.27;74.08;101150.28;5038516;28;20075;-75
2022/09/24 16:29:16;;;;;;;5.63;4.40;;;;;;;9.21;74.55;101142.00;5043079;28;20469;-76
2022/09/24 16:31:43;;;;;;;5.63;4.43;;;;;;;9.10;74.97;101123.59;5053554;28;20249;-74
2022/09/24 16:34:10;;;;;;;7.33;5.10;;;;;;;9.21;74.08;101147.34;5027605;28;20037;-77
2022/09/24 16:36:35;;;;;;;7.73;4.83;;;;;;;9.17;74.84;101140.63;5037878;28;20037;-76
2022/09/24 16:39:01;;;;;;;6.57;4.97;;;;;;;9.18;74.79;101140.50;5027931;28;20409;-76
2022/09/24 16:41:26;;;;;;;8.33;5.93;;;;;;;9.17;74.78;101140.63;5025432;28;20088;-77
2022/09/24 16:43:55;;;;;;;6.07;3.80;;;;;;;9.14;75.13;101133.78;5037967;28;20095;-77
2022/09/24 16:46:21;;;;;;;6.07;3.80;;;;;;;9.13;75.71;101134.78;5019367;28;20117;-74
2022/09/24 16:48:50;;;;;;;4.17;3.37;;;;;;;9.13;75.76;101136.59;5043108;28;20488;-76
2022/09/24 16:51:16;;;;;;;;;;;;;;;9.10;76.24;101139.53;5040506;28;20034;-77
2022/09/24 16:53:41;;;;;;;3.93;3.27;;;;;;;9.05;76.46;101131.16;5022530;28;19963;-80
2022/09/24 16:56:13;;;;;;;6.33;3.17;;;;;;;9.00;77.18;101136.91;5037978;28;20493;-77
2022/09/24 16:58:40;;;;;;;7.37;4.13;;;;;;;8.92;77.99;101126.97;5032174;28;20041;-76
2022/09/24 17:01:08;;;;;;;5.43;3.73;;;;;;;8.89;77.96;101132.59;5041795;28;20041;-77
2022/09/24 17:03:33;;;;;;;5.77;3.67;;;;;;;8.76;78.48;101116.13;5051956;28;20186;-75
2022/09/24 17:05:59;;;;;;;6.50;3.23;;;;;;;8.75;78.95;101125.06;5023640;28;20057;-75
2022/09/24 17:10:11;;;;;;;11.07;3.70;;;;;;;8.66;79.01;101105.50;5043693;28;20404;-74
2022/09/24 17:11:14;;;;;;;5.20;3.38;;;;;;;8.70;78.38;101114.03;5051986;28;20048;-77
2022/09/24 17:13:39;;;;;;;3.80;2.80;;;;;;;8.63;78.20;101104.94;5048735;28;20033;-75
2022/09/24 17:16:05;;;;;;;5.17;2.67;;;;;;;8.70;77.57;101114.03;5044962;28;20094;-75
2022/09/24 17:18:31;;;;;;;3.77;3.00;;;;;;;8.72;77.65;101108.59;5055022;28;20032;-77
2022/09/24 17:21:05;;;;;;;4.57;3.20;;;;;;;8.68;78.17;101102.72;5044347;28;20443;-73
2022/09/24 17:23:31;;;;;;;3.50;3.20;;;;;;;8.68;78.54;101097.41;5051917;28;20033;-77
2022/09/24 17:26:01;;;;;;;5.30;2.73;;;;;;;8.66;78.15;101099.34;5058970;28;20028;-74
2022/09/24 17:28:27;;;;;;;4.20;3.33;;;;;;;8.60;78.18;101092.78;5045749;28;20047;-75
2022/09/24 17:30:52;;;;;;;3.77;2.83;;;;;;;8.55;78.72;101091.56;5040361;28;20029;-76
2022/09/24 17:33:18;;;;;;;3.27;2.70;;;;;;;8.59;78.22;101098.25;5027527;28;20432;-77
2022/09/24 17:35:53;;;;;;;3.30;2.70;;;;;;;8.56;78.45;101087.91;5022606;28;20128;-76
2022/09/24 17:38:18;;;;;;;3.87;3.40;;;;;;;8.60;78.90;101105.22;5048513;28;20037;-77
2022/09/24 17:40:52;;;;;;;5.57;3.10;;;;;;;8.60;79.49;101091.97;5060429;28;20044;-83
2022/09/24 17:43:18;;;;;;;3.97;2.63;;;;;;;8.52;78.94;101076.75;5056716;28;20048;-77
2022/09/24 17:45:43;;;;;;;4.67;3.27;;;;;;;8.54;79.38;101081.91;5058184;28;20041;-76
2022/09/24 17:48:09;;;;;;;6.00;3.60;;;;;;;8.51;79.72;101075.06;5042716;28;20123;-77
2022/09/24 17:50:35;;;;;;;4.77;3.80;;;;;;;8.42;80.35;101069.78;5049706;28;20064;-76